createdAt,value
2018-03-06T00:00:05.466Z,7.16
2018-03-06T00:02:33.801Z,7.13
2018-03-06T00:05:02.134Z,7.09
2018-03-06T00:07:30.444Z,6.99
2018-03-06T00:09:58.758Z,6.89
2018-03-06T00:12:27.065Z,6.76
2018-03-06T00:14:55.493Z,6.65
2018-03-06T00:17:23.800Z,6.53
2018-03-06T00:19:52.131Z,6.38
2018-03-06T00:22:21.227Z,6.24
2018-03-06T00:24:50.337Z,6.13
2018-03-06T00:27:19.528Z,6.04
2018-03-06T00:29:48.593Z,6.00
2018-03-06T00:32:16.902Z,5.94
2018-03-06T00:34:45.990Z,5.90
2018-03-06T00:37:14.334Z,5.87
2018-03-06T00:39:42.643Z,5.88
2018-03-06T00:42:10.974Z,5.89
2018-03-06T00:44:39.284Z,5.91
2018-03-06T00:47:07.947Z,5.94
2018-03-06T00:49:36.256Z,5.93
2018-03-06T00:52:04.593Z,5.95
2018-03-06T00:54:33.691Z,5.95
2018-03-06T00:57:02.952Z,5.96
2018-03-06T00:59:31.304Z,5.96
2018-03-06T01:01:59.626Z,5.96
2018-03-06T01:04:27.956Z,5.97
2018-03-06T01:06:56.454Z,5.93
2018-03-06T01:09:24.775Z,5.92
2018-03-06T01:11:53.096Z,5.92
2018-03-06T01:14:21.424Z,5.96
2018-03-06T01:16:49.742Z,5.93
2018-03-06T01:19:18.852Z,5.93
2018-03-06T01:21:47.164Z,5.94
2018-03-06T01:24:15.487Z,5.94
2018-03-06T01:26:44.580Z,5.94
2018-03-06T01:29:12.902Z,5.93
2018-03-06T01:31:41.208Z,5.93
2018-03-06T01:34:09.532Z,5.96
2018-03-06T01:36:38.625Z,5.98
2018-03-06T01:39:07.708Z,5.95
2018-03-06T01:41:36.032Z,5.92
2018-03-06T01:44:04.346Z,5.91
2018-03-06T01:46:32.709Z,5.93
2018-03-06T01:49:01.556Z,5.90
2018-03-06T01:51:29.846Z,5.90
2018-03-06T01:53:58.948Z,5.90
2018-03-06T01:56:28.042Z,5.94
2018-03-06T01:58:57.124Z,5.95
2018-03-06T02:01:25.436Z,5.92
2018-03-06T02:03:54.521Z,5.93
2018-03-06T02:06:23.600Z,5.94
2018-03-06T02:08:51.910Z,5.94
2018-03-06T02:11:20.986Z,5.96
2018-03-06T02:13:49.301Z,6.03
2018-03-06T02:16:17.649Z,6.09
2018-03-06T02:18:46.045Z,6.19
2018-03-06T02:21:15.975Z,6.31
2018-03-06T02:23:45.056Z,6.45
2018-03-06T02:26:13.366Z,6.56
2018-03-06T02:28:41.844Z,6.66
2018-03-06T02:31:10.170Z,6.78
2018-03-06T02:33:38.572Z,6.90
2018-03-06T02:36:07.004Z,7.01
2018-03-06T02:38:35.332Z,7.12
2018-03-06T02:41:03.664Z,7.22
2018-03-06T02:43:31.995Z,7.33
2018-03-06T02:46:12.194Z,7.41
2018-03-06T02:48:40.512Z,7.47
2018-03-06T02:51:08.844Z,7.51
2018-03-06T02:53:37.148Z,7.56
2018-03-06T02:56:05.680Z,7.47
2018-03-06T02:58:34.772Z,7.46
2018-03-06T03:01:03.100Z,7.43
2018-03-06T03:03:31.430Z,7.37
2018-03-06T03:05:59.801Z,7.31
2018-03-06T03:08:28.128Z,7.26
2018-03-06T03:10:57.251Z,7.22
2018-03-06T03:13:25.562Z,7.16
2018-03-06T03:15:53.890Z,7.14
2018-03-06T03:18:23.068Z,7.25
2018-03-06T03:20:51.374Z,7.27
2018-03-06T03:23:20.485Z,7.26
2018-03-06T03:25:48.788Z,7.26
2018-03-06T03:28:17.106Z,7.24
2018-03-06T03:30:45.427Z,7.22
2018-03-06T03:33:13.748Z,7.22
2018-03-06T03:35:42.066Z,7.21
2018-03-06T03:38:11.160Z,7.23
2018-03-06T03:40:40.260Z,7.21
2018-03-06T03:43:09.347Z,7.23
2018-03-06T03:45:37.713Z,7.21
2018-03-06T03:48:05.978Z,7.20
2018-03-06T03:50:34.322Z,7.20
2018-03-06T03:53:02.635Z,7.20
2018-03-06T03:55:31.043Z,7.21
2018-03-06T03:57:59.342Z,7.21
2018-03-06T04:00:28.423Z,7.22
2018-03-06T04:02:56.728Z,7.23
2018-03-06T04:05:25.801Z,7.26
2018-03-06T04:07:54.139Z,7.28
2018-03-06T04:10:22.453Z,7.26
2018-03-06T04:12:50.780Z,7.25
2018-03-06T04:15:19.847Z,7.22
2018-03-06T04:17:48.194Z,7.18
2018-03-06T04:20:16.540Z,7.10
2018-03-06T04:22:45.631Z,7.03
2018-03-06T04:25:14.723Z,6.97
2018-03-06T04:27:43.796Z,6.88
2018-03-06T04:30:12.119Z,6.77
2018-03-06T04:32:41.206Z,6.66
2018-03-06T04:35:10.277Z,6.57
2018-03-06T04:37:38.587Z,6.51
2018-03-06T04:40:07.670Z,6.45
2018-03-06T04:42:35.971Z,6.42
2018-03-06T04:45:05.060Z,6.40
2018-03-06T04:47:34.135Z,6.42
2018-03-06T04:50:02.449Z,6.47
2018-03-06T04:52:31.528Z,6.51
2018-03-06T04:54:59.954Z,6.54
2018-03-06T04:57:28.274Z,6.56
2018-03-06T04:59:56.598Z,6.53
2018-03-06T05:02:24.927Z,6.49
2018-03-06T05:04:53.290Z,6.37
2018-03-06T05:07:21.616Z,6.33
2018-03-06T05:09:49.932Z,6.29
2018-03-06T05:12:18.228Z,6.24
2018-03-06T05:14:46.617Z,6.19
2018-03-06T05:17:14.988Z,6.14
2018-03-06T05:19:43.332Z,6.10
2018-03-06T05:22:12.408Z,6.02
2018-03-06T05:24:40.721Z,5.97
2018-03-06T05:27:09.805Z,5.94
2018-03-06T05:29:38.145Z,5.92
2018-03-06T05:32:06.646Z,5.87
2018-03-06T05:34:34.982Z,5.82
2018-03-06T05:37:03.309Z,5.78
2018-03-06T05:39:31.620Z,5.67
2018-03-06T05:42:00.712Z,5.63
2018-03-06T05:44:29.863Z,5.58
2018-03-06T05:46:58.193Z,5.58
2018-03-06T05:49:26.507Z,5.64
2018-03-06T05:51:54.815Z,5.69
2018-03-06T05:54:23.145Z,5.81
2018-03-06T05:56:53.108Z,5.91
2018-03-06T05:59:21.445Z,5.97
2018-03-06T06:01:50.543Z,5.96
2018-03-06T06:04:19.622Z,5.96
2018-03-06T06:06:47.951Z,5.92
2018-03-06T06:09:16.271Z,5.84
2018-03-06T06:11:44.603Z,5.82
2018-03-06T06:14:13.680Z,5.81
2018-03-06T06:16:41.988Z,5.76
2018-03-06T06:19:10.289Z,5.72
2018-03-06T06:21:38.619Z,5.69
2018-03-06T06:24:06.908Z,5.70
2018-03-06T06:26:35.995Z,5.73
2018-03-06T06:29:04.325Z,5.75
2018-03-06T06:31:32.677Z,5.81
2018-03-06T06:34:01.750Z,5.88
2018-03-06T06:36:30.068Z,5.93
2018-03-06T06:38:59.143Z,6.02
2018-03-06T06:41:27.460Z,6.14
2018-03-06T06:43:55.769Z,6.22
2018-03-06T06:46:24.073Z,6.31
2018-03-06T06:48:52.404Z,6.44
2018-03-06T06:51:20.698Z,6.52
2018-03-06T06:53:49.421Z,6.61
2018-03-06T06:56:17.733Z,6.72
2018-03-06T06:58:47.784Z,6.80
2018-03-06T07:01:16.165Z,6.86
2018-03-06T07:03:44.476Z,6.95
2018-03-06T07:06:12.829Z,7.05
2018-03-06T07:08:41.265Z,7.12
2018-03-06T07:11:09.698Z,7.27
2018-03-06T07:13:38.013Z,7.45
2018-03-06T07:16:06.313Z,7.65
2018-03-06T07:18:35.364Z,7.85
2018-03-06T07:21:03.667Z,8.06
2018-03-06T07:23:31.983Z,8.29
2018-03-06T07:26:01.120Z,8.50
2018-03-06T07:28:29.450Z,8.69
2018-03-06T07:30:57.754Z,8.87
2018-03-06T07:33:26.851Z,9.06
2018-03-06T07:35:55.933Z,9.25
2018-03-06T07:38:24.223Z,9.44
2018-03-06T07:40:53.297Z,9.58
2018-03-06T07:43:21.637Z,9.71
2018-03-06T07:45:50.835Z,9.79
2018-03-06T07:48:19.149Z,9.83
2018-03-06T07:50:47.453Z,9.88
2018-03-06T07:53:15.751Z,9.93
2018-03-06T07:55:44.817Z,10.01
2018-03-06T07:58:13.417Z,10.12
2018-03-06T08:00:41.725Z,10.27
2018-03-06T08:03:10.090Z,10.45
2018-03-06T08:05:38.439Z,10.60
2018-03-06T08:08:06.754Z,10.75
2018-03-06T08:10:35.896Z,10.84
2018-03-06T08:13:04.183Z,10.91
2018-03-06T08:15:32.799Z,11.00
2018-03-06T08:18:01.872Z,11.16
2018-03-06T08:20:30.162Z,11.23
2018-03-06T08:22:58.485Z,11.37
2018-03-06T08:25:27.641Z,11.48
2018-03-06T08:27:55.948Z,11.62
2018-03-06T08:30:24.243Z,11.74
2018-03-06T08:32:53.313Z,11.80
2018-03-06T08:35:21.635Z,11.77
2018-03-06T08:37:50.711Z,11.72
2018-03-06T08:40:19.031Z,11.62
2018-03-06T08:42:47.362Z,11.54
2018-03-06T08:45:17.171Z,11.47
2018-03-06T08:47:45.480Z,11.43
2018-03-06T08:50:14.616Z,11.51
2018-03-06T08:52:42.923Z,11.77
2018-03-06T08:55:11.237Z,12.00
2018-03-06T08:57:39.557Z,12.16
2018-03-06T09:00:07.892Z,12.28
2018-03-06T09:02:36.217Z,12.25
2018-03-06T09:05:04.605Z,12.10
2018-03-06T09:07:32.969Z,12.02
2018-03-06T09:10:01.259Z,12.16
2018-03-06T09:12:29.583Z,12.27
2018-03-06T09:14:57.892Z,12.43
2018-03-06T09:17:27.005Z,12.68
2018-03-06T09:19:56.085Z,12.86
2018-03-06T09:22:24.399Z,13.06
2018-03-06T09:24:52.765Z,13.27
2018-03-06T09:27:21.845Z,13.47
2018-03-06T09:29:50.164Z,13.59
2018-03-06T09:32:18.749Z,13.59
2018-03-06T09:34:47.052Z,13.40
2018-03-06T09:37:15.411Z,13.05
2018-03-06T09:39:43.723Z,12.74
2018-03-06T09:42:12.022Z,12.57
2018-03-06T09:44:40.350Z,12.46
2018-03-06T09:47:08.661Z,12.49
2018-03-06T09:49:37.047Z,12.59
2018-03-06T09:52:05.381Z,12.75
2018-03-06T09:54:33.918Z,12.97
2018-03-06T09:57:02.231Z,13.29
2018-03-06T09:59:30.557Z,13.61
2018-03-06T10:01:58.888Z,13.99
2018-03-06T10:04:27.218Z,14.48
2018-03-06T10:06:55.532Z,14.97
2018-03-06T10:09:23.839Z,15.55
2018-03-06T10:11:52.154Z,16.11
2018-03-06T10:14:20.451Z,16.40
2018-03-06T10:16:48.778Z,16.62
2018-03-06T10:19:17.091Z,16.82
2018-03-06T10:21:46.223Z,16.90
2018-03-06T10:24:14.522Z,17.03
2018-03-06T10:26:42.835Z,17.22
2018-03-06T10:29:11.912Z,17.58
2018-03-06T10:31:40.239Z,18.07
2018-03-06T10:34:08.536Z,18.34
2018-03-06T10:36:36.993Z,18.56
2018-03-06T10:39:07.791Z,18.74
2018-03-06T10:41:36.140Z,18.97
2018-03-06T10:44:04.512Z,19.17
2018-03-06T10:46:32.819Z,19.33
2018-03-06T10:49:01.154Z,19.38
2018-03-06T10:51:29.658Z,19.43
2018-03-06T10:53:57.976Z,19.25
2018-03-06T10:56:26.301Z,19.05
2018-03-06T10:58:55.368Z,18.97
2018-03-06T11:01:25.644Z,18.88
2018-03-06T11:03:53.937Z,18.59
2018-03-06T11:06:22.303Z,18.42
2018-03-06T11:08:50.626Z,18.28
2018-03-06T11:11:18.985Z,18.24
2018-03-06T11:13:48.041Z,18.42
2018-03-06T11:16:17.122Z,18.69
2018-03-06T11:18:45.548Z,18.88
2018-03-06T11:21:13.860Z,18.91
2018-03-06T11:23:42.165Z,18.95
2018-03-06T11:26:10.472Z,18.94
2018-03-06T11:28:39.563Z,18.89
2018-03-06T11:31:08.728Z,18.75
2018-03-06T11:33:37.804Z,18.65
2018-03-06T11:36:06.120Z,18.61
2018-03-06T11:38:34.431Z,18.64
2018-03-06T11:41:02.767Z,18.57
2018-03-06T11:43:31.091Z,18.51
2018-03-06T11:46:00.173Z,18.54
2018-03-06T11:48:28.480Z,18.72
2018-03-06T11:50:56.796Z,19.01
2018-03-06T11:53:25.107Z,19.25
2018-03-06T11:55:53.411Z,19.38
2018-03-06T11:58:21.869Z,19.35
2018-03-06T12:00:50.237Z,19.26
2018-03-06T12:03:18.572Z,19.42
2018-03-06T12:05:46.892Z,19.72
2018-03-06T12:08:15.226Z,19.85
2018-03-06T12:10:44.316Z,19.82
2018-03-06T12:13:13.396Z,19.92
2018-03-06T12:15:41.696Z,19.84
2018-03-06T12:18:10.826Z,19.77
2018-03-06T12:20:39.202Z,19.89
2018-03-06T12:23:07.504Z,20.08
2018-03-06T12:25:35.821Z,20.30
2018-03-06T12:28:04.127Z,20.35
2018-03-06T12:30:33.214Z,20.27
2018-03-06T12:33:02.277Z,20.36
2018-03-06T12:35:30.582Z,20.63
2018-03-06T12:37:59.807Z,21.02
2018-03-06T12:40:28.128Z,21.29
2018-03-06T12:42:56.506Z,21.64
2018-03-06T12:45:24.818Z,22.38
2018-03-06T12:47:53.142Z,22.89
2018-03-06T12:50:21.458Z,22.91
2018-03-06T12:52:49.764Z,22.58
2018-03-06T12:55:18.084Z,22.14
2018-03-06T12:57:46.420Z,22.04
2018-03-06T13:00:14.724Z,21.70
2018-03-06T13:02:43.820Z,21.49
2018-03-06T13:05:12.904Z,21.21
2018-03-06T13:07:42.027Z,20.95
2018-03-06T13:10:11.118Z,20.78
2018-03-06T13:12:40.250Z,20.62
2018-03-06T13:15:08.562Z,20.45
2018-03-06T13:17:36.884Z,21.23
2018-03-06T13:20:05.958Z,22.79
2018-03-06T13:22:34.268Z,24.00
2018-03-06T13:25:03.719Z,24.11
2018-03-06T13:27:32.041Z,24.68
2018-03-06T13:30:02.151Z,25.25
2018-03-06T13:32:30.879Z,25.82
2018-03-06T13:35:00.926Z,25.66
2018-03-06T13:37:29.259Z,25.23
2018-03-06T13:39:58.390Z,24.69
2018-03-06T13:42:26.716Z,24.05
2018-03-06T13:44:55.248Z,23.59
2018-03-06T13:47:23.574Z,23.44
2018-03-06T13:49:51.893Z,23.28
2018-03-06T13:52:20.986Z,23.05
2018-03-06T13:54:50.115Z,22.57
2018-03-06T13:57:18.472Z,22.10
2018-03-06T13:59:47.576Z,21.58
2018-03-06T14:02:16.648Z,21.14
2018-03-06T14:04:45.792Z,20.94
2018-03-06T14:07:14.188Z,20.32
2018-03-06T14:09:42.504Z,19.50
2018-03-06T14:12:10.814Z,18.92
2018-03-06T14:14:39.886Z,18.50
2018-03-06T14:17:08.192Z,18.22
2018-03-06T14:19:37.267Z,18.15
2018-03-06T14:22:05.587Z,18.10
2018-03-06T14:24:33.901Z,17.98
2018-03-06T14:27:02.218Z,17.77
2018-03-06T14:29:30.587Z,17.53
2018-03-06T14:31:59.309Z,17.29
2018-03-06T14:34:28.400Z,17.00
2018-03-06T14:36:57.493Z,16.80
2018-03-06T14:39:25.808Z,16.60
2018-03-06T14:41:54.116Z,16.39
2018-03-06T14:44:22.686Z,16.31
2018-03-06T14:46:50.997Z,16.42
2018-03-06T14:49:19.318Z,16.79
2018-03-06T14:51:48.463Z,17.19
2018-03-06T14:54:16.770Z,17.37
2018-03-06T14:56:45.086Z,17.26
2018-03-06T14:59:14.152Z,16.95
2018-03-06T15:01:43.983Z,16.71
2018-03-06T15:04:13.052Z,16.56
2018-03-06T15:06:41.366Z,16.49
2018-03-06T15:09:09.670Z,16.50
2018-03-06T15:11:37.968Z,16.35
2018-03-06T15:14:06.268Z,16.17
2018-03-06T15:16:34.903Z,15.93
2018-03-06T15:19:03.974Z,15.63
2018-03-06T15:21:32.264Z,15.31
2018-03-06T15:24:00.603Z,14.97
2018-03-06T15:26:28.969Z,14.72
2018-03-06T15:28:57.266Z,14.44
2018-03-06T15:31:25.615Z,14.23
2018-03-06T15:33:53.915Z,14.04
2018-03-06T15:36:22.963Z,13.87
2018-03-06T15:38:51.258Z,13.71
2018-03-06T15:41:20.374Z,13.63
2018-03-06T15:43:48.728Z,13.51
2018-03-06T15:46:17.084Z,13.45
2018-03-06T15:48:45.566Z,13.36
2018-03-06T15:51:13.897Z,13.31
2018-03-06T15:53:43.043Z,13.27
2018-03-06T15:56:11.449Z,13.19
2018-03-06T15:58:40.589Z,13.17
2018-03-06T16:01:08.996Z,13.16
2018-03-06T16:03:37.322Z,13.21
2018-03-06T16:06:05.678Z,13.24
2018-03-06T16:08:34.053Z,13.29
2018-03-06T16:11:02.440Z,13.37
2018-03-06T16:13:30.804Z,13.49
2018-03-06T16:15:59.196Z,14.08
2018-03-06T16:18:27.671Z,15.61
2018-03-06T16:20:56.048Z,16.85
2018-03-06T16:23:24.431Z,18.24
2018-03-06T16:25:53.344Z,19.37
2018-03-06T16:28:21.741Z,20.05
2018-03-06T16:30:54.629Z,19.98
2018-03-06T16:33:24.766Z,20.01
2018-03-06T16:35:53.483Z,19.33
2018-03-06T16:38:23.854Z,18.70
2018-03-06T16:40:53.973Z,18.54
2018-03-06T16:43:26.323Z,18.05
2018-03-06T16:45:54.981Z,17.59
2018-03-06T16:48:23.458Z,16.68
2018-03-06T16:50:51.808Z,15.67
2018-03-06T16:53:20.193Z,14.82
2018-03-06T16:55:51.428Z,14.11
2018-03-06T16:58:20.638Z,13.49
2018-03-06T17:00:49.937Z,12.97
2018-03-06T17:03:20.464Z,12.52
2018-03-06T17:05:50.125Z,12.10
2018-03-06T17:08:19.337Z,11.76
2018-03-06T17:10:50.619Z,11.43
2018-03-06T17:13:22.901Z,11.10
2018-03-06T17:15:53.033Z,10.80
2018-03-06T17:18:21.396Z,10.49
2018-03-06T17:20:52.702Z,10.20
2018-03-06T17:23:21.587Z,9.91
2018-03-06T17:25:50.691Z,9.70
2018-03-06T17:28:23.223Z,9.50
2018-03-06T17:30:52.495Z,9.28
2018-03-06T17:33:23.409Z,9.06
2018-03-06T17:35:55.189Z,8.87
2018-03-06T17:38:26.476Z,8.69
2018-03-06T17:40:57.249Z,8.51
2018-03-06T17:43:31.277Z,8.27
2018-03-06T17:46:00.957Z,8.05
2018-03-06T17:48:30.728Z,7.96
2018-03-06T17:51:00.990Z,7.95
2018-03-06T17:53:31.984Z,7.96
2018-03-06T17:56:03.338Z,7.94
2018-03-06T17:58:33.379Z,7.89
2018-03-06T18:01:04.083Z,7.86
2018-03-06T18:03:34.130Z,7.82
2018-03-06T18:06:05.654Z,7.73
2018-03-06T18:08:36.295Z,7.61
2018-03-06T18:11:05.627Z,7.54
2018-03-06T18:13:33.966Z,7.52
2018-03-06T18:16:03.091Z,7.60
2018-03-06T18:18:32.263Z,7.80
2018-03-06T18:21:00.739Z,7.92
2018-03-06T18:23:29.097Z,8.02
2018-03-06T18:25:57.564Z,8.17
2018-03-06T18:28:25.885Z,8.33
2018-03-06T18:30:54.234Z,8.51
2018-03-06T18:33:22.700Z,8.65
2018-03-06T18:35:51.054Z,8.76
2018-03-06T18:38:19.405Z,8.86
2018-03-06T18:40:47.786Z,8.92
2018-03-06T18:43:16.204Z,8.96
2018-03-06T18:45:45.455Z,8.95
2018-03-06T18:48:13.786Z,8.90
2018-03-06T18:51:00.733Z,8.86
2018-03-06T18:53:29.168Z,8.87
2018-03-06T18:55:58.410Z,8.93
2018-03-06T18:58:26.797Z,8.93
2018-03-06T19:14:40.665Z,8.41
2018-03-06T19:17:09.939Z,8.46
2018-03-06T19:19:39.293Z,8.54
2018-03-06T19:22:09.069Z,8.56
2018-03-06T19:24:38.312Z,8.52
2018-03-06T19:27:10.392Z,8.48
2018-03-06T19:29:38.802Z,8.45
2018-03-06T19:32:07.141Z,8.39
2018-03-06T19:34:35.431Z,8.41
2018-03-06T19:37:03.737Z,8.41
2018-03-06T19:39:32.051Z,8.37
2018-03-06T19:42:00.785Z,8.35
2018-03-06T19:44:29.176Z,8.32
2018-03-06T19:46:58.201Z,8.29
2018-03-06T19:49:26.840Z,8.24
2018-03-06T19:51:55.542Z,8.20
2018-03-06T19:54:25.070Z,8.19
2018-03-06T19:56:53.889Z,8.13
2018-03-06T19:59:22.225Z,8.04
2018-03-06T20:01:50.866Z,8.00
2018-03-06T20:04:19.609Z,7.97
2018-03-06T20:06:48.015Z,7.95
2018-03-06T20:09:16.732Z,7.89
2018-03-06T20:11:45.620Z,7.81
2018-03-06T20:14:14.361Z,7.68
2018-03-06T20:16:42.701Z,7.54
2018-03-06T20:19:16.855Z,7.37
2018-03-06T20:21:45.526Z,7.16
2018-03-06T20:24:19.760Z,6.93
2018-03-06T20:26:48.559Z,6.73
2018-03-06T20:29:16.983Z,6.58
2018-03-06T20:31:51.251Z,6.49
2018-03-06T20:34:20.009Z,6.31
2018-03-06T20:36:49.085Z,6.10
2018-03-06T20:39:23.462Z,5.92
2018-03-06T20:41:52.122Z,5.96
2018-03-06T20:44:21.191Z,6.02
2018-03-06T20:46:55.011Z,6.03
2018-03-06T20:49:23.334Z,5.94
2018-03-06T20:51:51.683Z,5.78
2018-03-06T20:54:26.386Z,5.59
2018-03-06T20:56:54.801Z,5.45
2018-03-06T20:59:23.902Z,5.35
2018-03-06T21:01:52.989Z,5.26
2018-03-06T21:04:23.013Z,5.15
2018-03-06T21:06:52.095Z,5.13
2018-03-06T21:09:20.425Z,5.06
2018-03-06T21:11:48.725Z,4.92
2018-03-06T21:14:17.028Z,4.85
2018-03-06T21:16:45.332Z,4.81
2018-03-06T21:19:14.419Z,4.72
2018-03-06T21:21:44.238Z,4.68
2018-03-06T21:24:12.547Z,4.72
2018-03-06T21:26:40.843Z,4.71
2018-03-06T21:29:09.203Z,4.63
2018-03-06T21:31:38.268Z,4.52
2018-03-06T21:34:06.587Z,4.43
2018-03-06T21:36:34.973Z,4.34
2018-03-06T21:39:03.279Z,4.29
2018-03-06T21:41:31.586Z,4.24
2018-03-06T21:43:59.944Z,4.27
2018-03-06T21:46:28.359Z,4.23
2018-03-06T21:48:56.655Z,4.18
2018-03-06T21:51:24.964Z,4.11
2018-03-06T21:53:53.264Z,4.05
2018-03-06T21:56:21.595Z,4.07
2018-03-06T21:58:50.684Z,4.04
2018-03-06T22:01:19.013Z,3.98
2018-03-06T22:03:47.294Z,3.93
2018-03-06T22:06:15.607Z,3.88
2018-03-06T22:08:43.952Z,3.87
2018-03-06T22:11:12.256Z,3.88
2018-03-06T22:13:40.550Z,3.87
2018-03-06T22:16:08.883Z,3.88
2018-03-06T22:18:37.223Z,3.94
2018-03-06T22:21:05.525Z,4.12
2018-03-06T22:23:33.953Z,4.24
2018-03-06T22:26:02.271Z,4.23
2018-03-06T22:28:30.602Z,4.17
2018-03-06T22:30:58.908Z,4.10
2018-03-06T22:33:27.220Z,4.09
2018-03-06T22:35:57.560Z,4.06
2018-03-06T22:38:26.706Z,4.05
2018-03-06T22:40:55.747Z,4.02
2018-03-06T22:43:24.036Z,3.98
2018-03-06T22:45:52.349Z,3.97
2018-03-06T22:48:20.643Z,3.93
2018-03-06T22:50:50.865Z,3.87
2018-03-06T22:53:19.164Z,3.82
2018-03-06T22:55:48.188Z,3.82
2018-03-06T22:58:16.482Z,3.83
2018-03-06T23:00:45.583Z,3.88
2018-03-06T23:03:15.447Z,4.03
2018-03-06T23:05:43.760Z,4.24
2018-03-06T23:08:12.056Z,4.46
2018-03-06T23:10:41.200Z,4.64
2018-03-06T23:13:09.496Z,4.79
2018-03-06T23:15:37.772Z,4.94
2018-03-06T23:18:06.070Z,5.08
2018-03-06T23:20:34.382Z,5.23
2018-03-06T23:23:03.432Z,5.36
2018-03-06T23:25:31.928Z,5.51
2018-03-06T23:28:00.309Z,5.65
2018-03-06T23:30:28.650Z,5.79
2018-03-06T23:32:56.935Z,5.93
2018-03-06T23:35:25.273Z,6.07
2018-03-06T23:37:53.589Z,6.19
2018-03-06T23:40:21.898Z,6.27
2018-03-06T23:42:50.205Z,6.38
2018-03-06T23:45:19.320Z,6.50
2018-03-06T23:47:48.280Z,6.59
2018-03-06T23:50:18.083Z,6.67
2018-03-06T23:52:48.576Z,6.72
2018-03-06T23:55:17.188Z,6.77
2018-03-06T23:57:45.851Z,6.79
